sensor_id;sensor_type;location;lat;lon;timestamp;P1;durP1;ratioP1;P2;durP2;ratioP2
55728;SDS011;41633;39.720;2.910;2022-07-29T00:02:17;11.48;;;3.85;;
55728;SDS011;41633;39.720;2.910;2022-07-29T00:04:43;13.77;;;4.20;;
55728;SDS011;41633;39.720;2.910;2022-07-29T00:07:09;10.27;;;3.55;;
55728;SDS011;41633;39.720;2.910;2022-07-29T00:09:35;11.35;;;3.40;;
55728;SDS011;41633;39.720;2.910;2022-07-29T00:12:02;12.38;;;3.70;;
55728;SDS011;41633;39.720;2.910;2022-07-29T00:14:28;11.75;;;3.45;;
55728;SDS011;41633;39.720;2.910;2022-07-29T00:16:54;15.75;;;4.38;;
55728;SDS011;41633;39.720;2.910;2022-07-29T00:19:20;13.05;;;3.72;;
55728;SDS011;41633;39.720;2.910;2022-07-29T00:21:46;9.23;;;3.33;;
55728;SDS011;41633;39.720;2.910;2022-07-29T00:24:12;10.25;;;3.45;;
55728;SDS011;41633;39.720;2.910;2022-07-29T00:26:39;12.48;;;3.22;;
55728;SDS011;41633;39.720;2.910;2022-07-29T00:29:05;12.98;;;3.63;;
55728;SDS011;41633;39.720;2.910;2022-07-29T00:31:31;11.80;;;3.70;;
55728;SDS011;41633;39.720;2.910;2022-07-29T00:33:57;14.15;;;3.33;;
55728;SDS011;41633;39.720;2.910;2022-07-29T00:36:23;12.68;;;3.78;;
55728;SDS011;41633;39.720;2.910;2022-07-29T00:38:49;12.57;;;3.50;;
55728;SDS011;41633;39.720;2.910;2022-07-29T00:41:16;12.05;;;3.60;;
55728;SDS011;41633;39.720;2.910;2022-07-29T00:43:43;11.05;;;3.60;;
55728;SDS011;41633;39.720;2.910;2022-07-29T00:46:09;9.90;;;3.42;;
55728;SDS011;41633;39.720;2.910;2022-07-29T00:48:35;14.63;;;3.85;;
55728;SDS011;41633;39.720;2.910;2022-07-29T00:51:02;11.88;;;3.33;;
55728;SDS011;41633;39.720;2.910;2022-07-29T00:53:29;9.15;;;3.42;;
55728;SDS011;41633;39.720;2.910;2022-07-29T00:55:56;10.98;;;3.75;;
55728;SDS011;41633;39.720;2.910;2022-07-29T00:58:23;9.88;;;3.40;;
55728;SDS011;41633;39.720;2.910;2022-07-29T01:00:49;12.45;;;3.88;;
55728;SDS011;41633;39.720;2.910;2022-07-29T01:03:15;11.57;;;3.47;;
55728;SDS011;41633;39.720;2.910;2022-07-29T01:05:41;10.93;;;3.53;;
55728;SDS011;41633;39.720;2.910;2022-07-29T01:08:08;12.65;;;4.10;;
55728;SDS011;41633;39.720;2.910;2022-07-29T01:10:36;10.80;;;3.53;;
55728;SDS011;41633;39.720;2.910;2022-07-29T01:13:03;12.35;;;3.70;;
55728;SDS011;41633;39.720;2.910;2022-07-29T01:15:29;11.68;;;3.42;;
55728;SDS011;41633;39.720;2.910;2022-07-29T01:18:12;11.32;;;3.80;;
55728;SDS011;41633;39.720;2.910;2022-07-29T01:30:57;13.93;;;4.10;;
55728;SDS011;41633;39.720;2.910;2022-07-29T01:33:24;11.27;;;4.13;;
55728;SDS011;41633;39.720;2.910;2022-07-29T01:36:10;11.27;;;3.78;;
55728;SDS011;41633;39.720;2.910;2022-07-29T01:38:39;12.40;;;3.55;;
55728;SDS011;41633;39.720;2.910;2022-07-29T01:41:11;8.85;;;3.22;;
55728;SDS011;41633;39.720;2.910;2022-07-29T01:43:57;10.25;;;3.80;;
55728;SDS011;41633;39.720;2.910;2022-07-29T01:46:34;13.05;;;3.65;;
55728;SDS011;41633;39.720;2.910;2022-07-29T01:49:24;11.30;;;3.58;;
55728;SDS011;41633;39.720;2.910;2022-07-29T01:51:49;11.23;;;3.40;;
55728;SDS011;41633;39.720;2.910;2022-07-29T01:57:00;10.02;;;3.38;;
55728;SDS011;41633;39.720;2.910;2022-07-29T01:59:27;9.75;;;3.90;;
55728;SDS011;41633;39.720;2.910;2022-07-29T02:01:55;11.32;;;3.50;;
55728;SDS011;41633;39.720;2.910;2022-07-29T02:04:23;13.25;;;3.30;;
55728;SDS011;41633;39.720;2.910;2022-07-29T02:06:49;11.85;;;3.28;;
55728;SDS011;41633;39.720;2.910;2022-07-29T02:09:16;12.10;;;3.58;;
55728;SDS011;41633;39.720;2.910;2022-07-29T02:11:50;12.52;;;3.50;;
55728;SDS011;41633;39.720;2.910;2022-07-29T02:14:17;10.30;;;3.70;;
55728;SDS011;41633;39.720;2.910;2022-07-29T02:16:44;11.00;;;3.47;;
55728;SDS011;41633;39.720;2.910;2022-07-29T02:19:11;13.18;;;3.63;;
55728;SDS011;41633;39.720;2.910;2022-07-29T02:21:38;13.32;;;3.90;;
55728;SDS011;41633;39.720;2.910;2022-07-29T02:24:04;11.68;;;3.78;;
55728;SDS011;41633;39.720;2.910;2022-07-29T02:26:31;13.15;;;4.05;;
55728;SDS011;41633;39.720;2.910;2022-07-29T02:28:58;9.90;;;3.47;;
55728;SDS011;41633;39.720;2.910;2022-07-29T02:31:26;12.27;;;4.03;;
55728;SDS011;41633;39.720;2.910;2022-07-29T02:33:54;11.05;;;3.80;;
55728;SDS011;41633;39.720;2.910;2022-07-29T02:36:22;13.90;;;3.58;;
55728;SDS011;41633;39.720;2.910;2022-07-29T02:38:49;10.98;;;3.50;;
55728;SDS011;41633;39.720;2.910;2022-07-29T02:41:27;13.10;;;3.40;;
55728;SDS011;41633;39.720;2.910;2022-07-29T02:43:55;12.90;;;3.95;;
55728;SDS011;41633;39.720;2.910;2022-07-29T02:46:25;11.40;;;3.80;;
55728;SDS011;41633;39.720;2.910;2022-07-29T02:49:15;11.20;;;3.63;;
55728;SDS011;41633;39.720;2.910;2022-07-29T02:54:35;12.45;;;3.88;;
55728;SDS011;41633;39.720;2.910;2022-07-29T02:57:04;13.38;;;3.67;;
55728;SDS011;41633;39.720;2.910;2022-07-29T02:59:32;10.23;;;4.05;;
55728;SDS011;41633;39.720;2.910;2022-07-29T03:02:01;12.27;;;3.97;;
55728;SDS011;41633;39.720;2.910;2022-07-29T03:04:28;11.95;;;4.03;;
55728;SDS011;41633;39.720;2.910;2022-07-29T03:06:56;14.15;;;4.05;;
55728;SDS011;41633;39.720;2.910;2022-07-29T03:09:24;11.98;;;3.83;;
55728;SDS011;41633;39.720;2.910;2022-07-29T03:11:51;12.10;;;3.60;;
55728;SDS011;41633;39.720;2.910;2022-07-29T03:14:19;13.57;;;3.75;;
55728;SDS011;41633;39.720;2.910;2022-07-29T03:16:45;13.48;;;3.53;;
55728;SDS011;41633;39.720;2.910;2022-07-29T03:19:12;15.30;;;4.07;;
55728;SDS011;41633;39.720;2.910;2022-07-29T03:21:38;10.55;;;3.45;;
55728;SDS011;41633;39.720;2.910;2022-07-29T03:24:04;13.68;;;3.80;;
55728;SDS011;41633;39.720;2.910;2022-07-29T03:26:31;8.98;;;3.33;;
55728;SDS011;41633;39.720;2.910;2022-07-29T03:28:57;14.02;;;4.00;;
55728;SDS011;41633;39.720;2.910;2022-07-29T03:31:23;12.13;;;3.60;;
55728;SDS011;41633;39.720;2.910;2022-07-29T03:33:49;11.43;;;3.47;;
55728;SDS011;41633;39.720;2.910;2022-07-29T03:36:15;12.52;;;3.78;;
55728;SDS011;41633;39.720;2.910;2022-07-29T03:38:41;11.07;;;3.08;;
55728;SDS011;41633;39.720;2.910;2022-07-29T03:41:09;9.73;;;3.58;;
55728;SDS011;41633;39.720;2.910;2022-07-29T03:43:37;12.02;;;3.75;;
55728;SDS011;41633;39.720;2.910;2022-07-29T03:46:04;12.70;;;4.20;;
55728;SDS011;41633;39.720;2.910;2022-07-29T03:48:33;9.13;;;3.38;;
55728;SDS011;41633;39.720;2.910;2022-07-29T03:51:00;11.65;;;3.83;;
55728;SDS011;41633;39.720;2.910;2022-07-29T03:53:27;11.02;;;3.80;;
55728;SDS011;41633;39.720;2.910;2022-07-29T03:55:54;9.48;;;3.25;;
55728;SDS011;41633;39.720;2.910;2022-07-29T03:58:20;8.85;;;3.28;;
55728;SDS011;41633;39.720;2.910;2022-07-29T04:00:46;10.38;;;3.88;;
55728;SDS011;41633;39.720;2.910;2022-07-29T04:03:12;11.70;;;3.85;;
55728;SDS011;41633;39.720;2.910;2022-07-29T04:05:39;13.95;;;3.78;;
55728;SDS011;41633;39.720;2.910;2022-07-29T04:08:05;7.88;;;3.10;;
55728;SDS011;41633;39.720;2.910;2022-07-29T04:10:31;9.90;;;3.33;;
55728;SDS011;41633;39.720;2.910;2022-07-29T04:12:58;11.45;;;3.53;;
55728;SDS011;41633;39.720;2.910;2022-07-29T04:15:24;11.15;;;3.22;;
55728;SDS011;41633;39.720;2.910;2022-07-29T04:17:52;15.00;;;3.45;;
55728;SDS011;41633;39.720;2.910;2022-07-29T04:20:18;9.95;;;3.40;;
55728;SDS011;41633;39.720;2.910;2022-07-29T04:22:44;10.52;;;3.38;;
55728;SDS011;41633;39.720;2.910;2022-07-29T04:25:10;12.50;;;3.70;;
55728;SDS011;41633;39.720;2.910;2022-07-29T04:27:36;13.55;;;3.72;;
55728;SDS011;41633;39.720;2.910;2022-07-29T04:30:22;13.75;;;3.80;;
55728;SDS011;41633;39.720;2.910;2022-07-29T04:32:48;9.52;;;3.58;;
55728;SDS011;41633;39.720;2.910;2022-07-29T04:35:14;13.73;;;4.38;;
55728;SDS011;41633;39.720;2.910;2022-07-29T04:37:40;14.68;;;4.38;;
55728;SDS011;41633;39.720;2.910;2022-07-29T04:40:07;13.65;;;4.18;;
55728;SDS011;41633;39.720;2.910;2022-07-29T04:42:33;16.00;;;3.90;;
55728;SDS011;41633;39.720;2.910;2022-07-29T04:44:59;19.20;;;4.28;;
55728;SDS011;41633;39.720;2.910;2022-07-29T04:47:25;15.77;;;3.92;;
55728;SDS011;41633;39.720;2.910;2022-07-29T04:49:51;13.25;;;4.15;;
55728;SDS011;41633;39.720;2.910;2022-07-29T04:52:17;12.45;;;3.53;;
55728;SDS011;41633;39.720;2.910;2022-07-29T04:54:43;16.23;;;4.38;;
55728;SDS011;41633;39.720;2.910;2022-07-29T04:57:09;13.30;;;3.83;;
55728;SDS011;41633;39.720;2.910;2022-07-29T04:59:35;12.45;;;3.53;;
55728;SDS011;41633;39.720;2.910;2022-07-29T05:02:01;10.85;;;3.45;;
55728;SDS011;41633;39.720;2.910;2022-07-29T05:04:27;13.23;;;3.33;;
55728;SDS011;41633;39.720;2.910;2022-07-29T05:06:54;11.43;;;3.42;;
55728;SDS011;41633;39.720;2.910;2022-07-29T05:09:20;14.73;;;4.00;;
55728;SDS011;41633;39.720;2.910;2022-07-29T05:11:46;11.05;;;3.75;;
55728;SDS011;41633;39.720;2.910;2022-07-29T05:14:12;13.52;;;5.43;;
55728;SDS011;41633;39.720;2.910;2022-07-29T05:16:38;13.27;;;4.90;;
55728;SDS011;41633;39.720;2.910;2022-07-29T05:19:05;14.27;;;4.30;;
55728;SDS011;41633;39.720;2.910;2022-07-29T05:21:31;13.95;;;4.43;;
55728;SDS011;41633;39.720;2.910;2022-07-29T05:23:57;14.52;;;3.85;;
55728;SDS011;41633;39.720;2.910;2022-07-29T05:26:23;17.88;;;4.07;;
55728;SDS011;41633;39.720;2.910;2022-07-29T05:28:49;11.32;;;3.92;;
55728;SDS011;41633;39.720;2.910;2022-07-29T05:31:15;19.52;;;4.18;;
55728;SDS011;41633;39.720;2.910;2022-07-29T05:33:42;14.20;;;3.88;;
55728;SDS011;41633;39.720;2.910;2022-07-29T05:36:08;15.43;;;3.92;;
55728;SDS011;41633;39.720;2.910;2022-07-29T05:38:34;18.23;;;4.00;;
55728;SDS011;41633;39.720;2.910;2022-07-29T05:41:00;14.95;;;3.85;;
55728;SDS011;41633;39.720;2.910;2022-07-29T05:43:27;15.38;;;4.15;;
55728;SDS011;41633;39.720;2.910;2022-07-29T05:45:53;14.45;;;3.85;;
55728;SDS011;41633;39.720;2.910;2022-07-29T05:48:19;14.93;;;3.80;;
55728;SDS011;41633;39.720;2.910;2022-07-29T05:50:45;13.90;;;3.80;;
55728;SDS011;41633;39.720;2.910;2022-07-29T05:53:11;10.02;;;3.70;;
55728;SDS011;41633;39.720;2.910;2022-07-29T05:55:38;14.70;;;3.78;;
55728;SDS011;41633;39.720;2.910;2022-07-29T05:58:04;11.63;;;3.50;;
55728;SDS011;41633;39.720;2.910;2022-07-29T06:00:30;10.82;;;3.70;;
55728;SDS011;41633;39.720;2.910;2022-07-29T06:02:56;13.93;;;3.83;;
55728;SDS011;41633;39.720;2.910;2022-07-29T06:05:22;10.98;;;3.35;;
55728;SDS011;41633;39.720;2.910;2022-07-29T06:07:49;15.13;;;3.63;;
55728;SDS011;41633;39.720;2.910;2022-07-29T06:10:15;14.60;;;3.47;;
55728;SDS011;41633;39.720;2.910;2022-07-29T06:12:41;13.30;;;3.75;;
55728;SDS011;41633;39.720;2.910;2022-07-29T06:15:07;10.85;;;3.55;;
55728;SDS011;41633;39.720;2.910;2022-07-29T06:17:33;11.18;;;3.30;;
55728;SDS011;41633;39.720;2.910;2022-07-29T06:19:59;13.20;;;4.18;;
55728;SDS011;41633;39.720;2.910;2022-07-29T06:22:26;11.40;;;3.67;;
55728;SDS011;41633;39.720;2.910;2022-07-29T06:24:52;11.35;;;3.60;;
55728;SDS011;41633;39.720;2.910;2022-07-29T06:27:18;15.77;;;3.60;;
55728;SDS011;41633;39.720;2.910;2022-07-29T06:29:44;15.05;;;3.63;;
55728;SDS011;41633;39.720;2.910;2022-07-29T06:32:10;10.68;;;3.40;;
55728;SDS011;41633;39.720;2.910;2022-07-29T06:34:36;17.40;;;4.10;;
55728;SDS011;41633;39.720;2.910;2022-07-29T06:37:06;11.38;;;3.83;;
55728;SDS011;41633;39.720;2.910;2022-07-29T06:39:33;13.25;;;3.90;;
55728;SDS011;41633;39.720;2.910;2022-07-29T06:42:00;17.38;;;4.43;;
55728;SDS011;41633;39.720;2.910;2022-07-29T06:44:26;14.43;;;4.93;;
55728;SDS011;41633;39.720;2.910;2022-07-29T06:46:52;17.10;;;4.88;;
55728;SDS011;41633;39.720;2.910;2022-07-29T06:49:19;11.68;;;3.90;;
55728;SDS011;41633;39.720;2.910;2022-07-29T06:51:45;16.25;;;4.45;;
55728;SDS011;41633;39.720;2.910;2022-07-29T06:54:11;17.75;;;5.03;;
55728;SDS011;41633;39.720;2.910;2022-07-29T06:56:38;12.82;;;5.28;;
55728;SDS011;41633;39.720;2.910;2022-07-29T06:59:09;12.45;;;6.32;;
55728;SDS011;41633;39.720;2.910;2022-07-29T07:01:37;11.25;;;3.97;;
55728;SDS011;41633;39.720;2.910;2022-07-29T07:04:03;14.50;;;4.93;;
55728;SDS011;41633;39.720;2.910;2022-07-29T07:06:29;13.48;;;4.18;;
55728;SDS011;41633;39.720;2.910;2022-07-29T07:08:56;13.80;;;4.10;;
55728;SDS011;41633;39.720;2.910;2022-07-29T07:11:22;10.68;;;3.75;;
55728;SDS011;41633;39.720;2.910;2022-07-29T07:13:48;11.63;;;3.75;;
55728;SDS011;41633;39.720;2.910;2022-07-29T07:16:14;13.57;;;4.03;;
55728;SDS011;41633;39.720;2.910;2022-07-29T07:18:40;11.68;;;3.53;;
55728;SDS011;41633;39.720;2.910;2022-07-29T07:21:07;15.77;;;3.63;;
55728;SDS011;41633;39.720;2.910;2022-07-29T07:23:33;12.40;;;3.78;;
55728;SDS011;41633;39.720;2.910;2022-07-29T07:25:59;11.95;;;3.85;;
55728;SDS011;41633;39.720;2.910;2022-07-29T07:28:25;11.00;;;3.50;;
55728;SDS011;41633;39.720;2.910;2022-07-29T07:30:51;13.48;;;3.50;;
55728;SDS011;41633;39.720;2.910;2022-07-29T07:33:17;10.88;;;3.45;;
55728;SDS011;41633;39.720;2.910;2022-07-29T07:35:44;11.55;;;3.30;;
55728;SDS011;41633;39.720;2.910;2022-07-29T07:38:10;11.07;;;3.15;;
55728;SDS011;41633;39.720;2.910;2022-07-29T07:40:36;12.23;;;3.25;;
55728;SDS011;41633;39.720;2.910;2022-07-29T07:43:02;9.93;;;3.13;;
55728;SDS011;41633;39.720;2.910;2022-07-29T07:45:28;11.32;;;3.45;;
55728;SDS011;41633;39.720;2.910;2022-07-29T07:47:54;9.05;;;2.80;;
55728;SDS011;41633;39.720;2.910;2022-07-29T07:50:21;9.23;;;2.95;;
55728;SDS011;41633;39.720;2.910;2022-07-29T07:52:48;9.43;;;2.90;;
55728;SDS011;41633;39.720;2.910;2022-07-29T07:55:14;11.98;;;3.35;;
55728;SDS011;41633;39.720;2.910;2022-07-29T07:57:40;9.07;;;3.22;;
55728;SDS011;41633;39.720;2.910;2022-07-29T08:00:06;10.25;;;2.92;;
55728;SDS011;41633;39.720;2.910;2022-07-29T08:02:33;10.60;;;2.97;;
55728;SDS011;41633;39.720;2.910;2022-07-29T08:04:59;13.48;;;3.33;;
55728;SDS011;41633;39.720;2.910;2022-07-29T08:07:25;13.77;;;3.33;;
55728;SDS011;41633;39.720;2.910;2022-07-29T08:09:51;11.55;;;2.90;;
55728;SDS011;41633;39.720;2.910;2022-07-29T08:12:17;10.00;;;3.33;;
55728;SDS011;41633;39.720;2.910;2022-07-29T08:14:43;13.98;;;3.55;;
55728;SDS011;41633;39.720;2.910;2022-07-29T08:17:09;16.60;;;3.90;;
55728;SDS011;41633;39.720;2.910;2022-07-29T08:19:35;13.05;;;3.65;;
55728;SDS011;41633;39.720;2.910;2022-07-29T08:22:02;14.30;;;3.38;;
55728;SDS011;41633;39.720;2.910;2022-07-29T08:24:28;10.48;;;3.50;;
55728;SDS011;41633;39.720;2.910;2022-07-29T08:27:17;12.60;;;3.10;;
55728;SDS011;41633;39.720;2.910;2022-07-29T08:29:44;13.45;;;4.15;;
55728;SDS011;41633;39.720;2.910;2022-07-29T08:32:10;10.30;;;3.80;;
55728;SDS011;41633;39.720;2.910;2022-07-29T08:34:36;8.48;;;2.78;;
55728;SDS011;41633;39.720;2.910;2022-07-29T08:37:02;9.73;;;3.08;;
55728;SDS011;41633;39.720;2.910;2022-07-29T08:39:28;13.30;;;2.90;;
55728;SDS011;41633;39.720;2.910;2022-07-29T08:41:55;9.60;;;2.63;;
55728;SDS011;41633;39.720;2.910;2022-07-29T08:44:21;10.75;;;3.20;;
55728;SDS011;41633;39.720;2.910;2022-07-29T08:46:48;11.32;;;3.20;;
55728;SDS011;41633;39.720;2.910;2022-07-29T08:49:14;11.63;;;3.00;;
55728;SDS011;41633;39.720;2.910;2022-07-29T08:51:41;9.27;;;2.75;;
55728;SDS011;41633;39.720;2.910;2022-07-29T08:54:09;12.30;;;3.28;;
55728;SDS011;41633;39.720;2.910;2022-07-29T08:56:35;8.82;;;2.80;;
55728;SDS011;41633;39.720;2.910;2022-07-29T08:59:04;11.27;;;3.13;;
55728;SDS011;41633;39.720;2.910;2022-07-29T09:01:32;12.77;;;3.30;;
55728;SDS011;41633;39.720;2.910;2022-07-29T09:03:59;14.75;;;3.22;;
55728;SDS011;41633;39.720;2.910;2022-07-29T09:06:28;11.48;;;3.05;;
55728;SDS011;41633;39.720;2.910;2022-07-29T09:08:58;13.65;;;3.08;;
55728;SDS011;41633;39.720;2.910;2022-07-29T09:11:25;13.30;;;3.30;;
55728;SDS011;41633;39.720;2.910;2022-07-29T09:13:51;13.23;;;3.10;;
55728;SDS011;41633;39.720;2.910;2022-07-29T09:16:17;11.52;;;3.17;;
55728;SDS011;41633;39.720;2.910;2022-07-29T09:18:44;11.32;;;3.20;;
55728;SDS011;41633;39.720;2.910;2022-07-29T09:21:12;11.43;;;2.97;;
55728;SDS011;41633;39.720;2.910;2022-07-29T09:24:14;10.57;;;2.78;;
55728;SDS011;41633;39.720;2.910;2022-07-29T09:26:42;13.57;;;3.20;;
55728;SDS011;41633;39.720;2.910;2022-07-29T09:29:18;11.13;;;3.10;;
55728;SDS011;41633;39.720;2.910;2022-07-29T09:31:45;11.82;;;3.25;;
55728;SDS011;41633;39.720;2.910;2022-07-29T09:34:13;14.18;;;3.40;;
55728;SDS011;41633;39.720;2.910;2022-07-29T09:39:08;10.57;;;3.33;;
55728;SDS011;41633;39.720;2.910;2022-07-29T09:41:44;12.18;;;3.20;;
55728;SDS011;41633;39.720;2.910;2022-07-29T09:44:11;10.93;;;3.20;;
55728;SDS011;41633;39.720;2.910;2022-07-29T09:46:37;11.98;;;3.17;;
55728;SDS011;41633;39.720;2.910;2022-07-29T09:49:10;13.40;;;3.38;;
55728;SDS011;41633;39.720;2.910;2022-07-29T09:51:37;10.75;;;3.00;;
55728;SDS011;41633;39.720;2.910;2022-07-29T09:56:48;13.90;;;3.30;;
55728;SDS011;41633;39.720;2.910;2022-07-29T09:59:14;17.23;;;4.05;;
55728;SDS011;41633;39.720;2.910;2022-07-29T10:01:40;12.98;;;3.20;;
55728;SDS011;41633;39.720;2.910;2022-07-29T10:04:07;12.65;;;3.08;;
55728;SDS011;41633;39.720;2.910;2022-07-29T10:06:33;11.20;;;3.35;;
55728;SDS011;41633;39.720;2.910;2022-07-29T10:09:09;11.60;;;2.95;;
55728;SDS011;41633;39.720;2.910;2022-07-29T10:11:35;9.80;;;2.92;;
55728;SDS011;41633;39.720;2.910;2022-07-29T10:14:01;10.88;;;3.28;;
55728;SDS011;41633;39.720;2.910;2022-07-29T10:16:28;13.95;;;3.40;;
55728;SDS011;41633;39.720;2.910;2022-07-29T10:19:00;15.85;;;3.40;;
55728;SDS011;41633;39.720;2.910;2022-07-29T10:21:27;12.68;;;3.15;;
55728;SDS011;41633;39.720;2.910;2022-07-29T10:23:53;15.55;;;3.13;;
55728;SDS011;41633;39.720;2.910;2022-07-29T10:26:20;22.42;;;4.03;;
55728;SDS011;41633;39.720;2.910;2022-07-29T10:28:46;13.07;;;3.03;;
55728;SDS011;41633;39.720;2.910;2022-07-29T10:31:18;15.52;;;3.20;;
55728;SDS011;41633;39.720;2.910;2022-07-29T10:37:03;11.73;;;3.25;;
55728;SDS011;41633;39.720;2.910;2022-07-29T10:44:45;12.35;;;3.05;;
55728;SDS011;41633;39.720;2.910;2022-07-29T10:50:00;12.25;;;3.00;;
55728;SDS011;41633;39.720;2.910;2022-07-29T10:55:33;13.80;;;2.95;;
55728;SDS011;41633;39.720;2.910;2022-07-29T11:00:37;12.82;;;3.28;;
55728;SDS011;41633;39.720;2.910;2022-07-29T11:03:03;43.22;;;6.28;;
55728;SDS011;41633;39.720;2.910;2022-07-29T11:05:29;17.55;;;3.60;;
55728;SDS011;41633;39.720;2.910;2022-07-29T11:10:45;11.20;;;2.88;;
55728;SDS011;41633;39.720;2.910;2022-07-29T11:13:11;17.38;;;3.13;;
55728;SDS011;41633;39.720;2.910;2022-07-29T11:15:56;16.65;;;2.97;;
55728;SDS011;41633;39.720;2.910;2022-07-29T11:20:49;13.68;;;2.95;;
55728;SDS011;41633;39.720;2.910;2022-07-29T11:28:48;17.55;;;3.22;;
55728;SDS011;41633;39.720;2.910;2022-07-29T11:31:15;17.70;;;3.53;;
55728;SDS011;41633;39.720;2.910;2022-07-29T11:33:42;16.33;;;3.13;;
55728;SDS011;41633;39.720;2.910;2022-07-29T11:38:35;11.20;;;3.03;;
55728;SDS011;41633;39.720;2.910;2022-07-29T11:41:34;11.07;;;3.13;;
55728;SDS011;41633;39.720;2.910;2022-07-29T11:43:57;12.15;;;3.40;;
55728;SDS011;41633;39.720;2.910;2022-07-29T11:49:09;11.63;;;2.92;;
55728;SDS011;41633;39.720;2.910;2022-07-29T11:51:36;15.43;;;3.33;;
55728;SDS011;41633;39.720;2.910;2022-07-29T11:54:02;16.55;;;3.33;;
55728;SDS011;41633;39.720;2.910;2022-07-29T11:56:30;8.38;;;2.85;;
55728;SDS011;41633;39.720;2.910;2022-07-29T11:59:06;9.93;;;2.90;;
55728;SDS011;41633;39.720;2.910;2022-07-29T12:01:35;13.27;;;3.38;;
55728;SDS011;41633;39.720;2.910;2022-07-29T12:04:03;14.52;;;3.38;;
55728;SDS011;41633;39.720;2.910;2022-07-29T12:06:29;15.00;;;3.50;;
55728;SDS011;41633;39.720;2.910;2022-07-29T12:08:55;11.02;;;3.38;;
55728;SDS011;41633;39.720;2.910;2022-07-29T12:11:21;16.45;;;3.28;;
55728;SDS011;41633;39.720;2.910;2022-07-29T12:13:48;11.88;;;2.85;;
55728;SDS011;41633;39.720;2.910;2022-07-29T12:16:14;10.95;;;2.70;;
55728;SDS011;41633;39.720;2.910;2022-07-29T12:18:40;18.83;;;3.58;;
55728;SDS011;41633;39.720;2.910;2022-07-29T12:21:06;13.25;;;2.72;;
55728;SDS011;41633;39.720;2.910;2022-07-29T12:23:33;12.65;;;3.05;;
55728;SDS011;41633;39.720;2.910;2022-07-29T12:25:59;8.55;;;2.58;;
55728;SDS011;41633;39.720;2.910;2022-07-29T12:28:26;10.70;;;2.72;;
55728;SDS011;41633;39.720;2.910;2022-07-29T12:30:52;12.98;;;2.90;;
55728;SDS011;41633;39.720;2.910;2022-07-29T12:33:20;12.35;;;2.80;;
55728;SDS011;41633;39.720;2.910;2022-07-29T12:35:47;12.43;;;2.78;;
55728;SDS011;41633;39.720;2.910;2022-07-29T12:38:14;10.65;;;2.60;;
55728;SDS011;41633;39.720;2.910;2022-07-29T12:40:41;11.90;;;2.92;;
55728;SDS011;41633;39.720;2.910;2022-07-29T12:45:34;16.63;;;2.88;;
55728;SDS011;41633;39.720;2.910;2022-07-29T12:48:01;11.10;;;3.00;;
55728;SDS011;41633;39.720;2.910;2022-07-29T12:50:27;12.70;;;2.90;;
55728;SDS011;41633;39.720;2.910;2022-07-29T12:52:53;10.35;;;2.55;;
55728;SDS011;41633;39.720;2.910;2022-07-29T12:58:05;16.98;;;3.17;;
55728;SDS011;41633;39.720;2.910;2022-07-29T13:00:31;10.65;;;2.72;;
55728;SDS011;41633;39.720;2.910;2022-07-29T13:02:58;10.70;;;2.88;;
55728;SDS011;41633;39.720;2.910;2022-07-29T13:05:38;10.75;;;2.67;;
55728;SDS011;41633;39.720;2.910;2022-07-29T13:08:11;9.98;;;2.90;;
55728;SDS011;41633;39.720;2.910;2022-07-29T13:10:37;10.55;;;2.67;;
55728;SDS011;41633;39.720;2.910;2022-07-29T13:13:10;11.27;;;2.83;;
55728;SDS011;41633;39.720;2.910;2022-07-29T13:15:37;15.07;;;3.33;;
55728;SDS011;41633;39.720;2.910;2022-07-29T13:18:04;13.07;;;3.08;;
55728;SDS011;41633;39.720;2.910;2022-07-29T13:20:31;14.10;;;2.80;;
55728;SDS011;41633;39.720;2.910;2022-07-29T13:22:58;8.43;;;2.55;;
55728;SDS011;41633;39.720;2.910;2022-07-29T13:25:25;11.63;;;2.80;;
55728;SDS011;41633;39.720;2.910;2022-07-29T13:27:52;12.77;;;2.80;;
55728;SDS011;41633;39.720;2.910;2022-07-29T13:30:19;10.40;;;2.70;;
55728;SDS011;41633;39.720;2.910;2022-07-29T13:32:46;10.52;;;2.78;;
55728;SDS011;41633;39.720;2.910;2022-07-29T13:35:12;11.68;;;2.90;;
55728;SDS011;41633;39.720;2.910;2022-07-29T13:37:39;9.20;;;2.70;;
55728;SDS011;41633;39.720;2.910;2022-07-29T13:40:08;10.00;;;2.13;;
55728;SDS011;41633;39.720;2.910;2022-07-29T13:42:34;10.75;;;2.67;;
55728;SDS011;41633;39.720;2.910;2022-07-29T13:45:01;13.65;;;2.97;;
55728;SDS011;41633;39.720;2.910;2022-07-29T13:47:27;13.60;;;3.15;;
55728;SDS011;41633;39.720;2.910;2022-07-29T13:49:56;10.65;;;2.90;;
55728;SDS011;41633;39.720;2.910;2022-07-29T13:52:22;10.05;;;2.40;;
55728;SDS011;41633;39.720;2.910;2022-07-29T13:54:48;12.40;;;2.55;;
55728;SDS011;41633;39.720;2.910;2022-07-29T13:57:14;11.68;;;2.83;;
55728;SDS011;41633;39.720;2.910;2022-07-29T13:59:41;11.32;;;2.50;;
55728;SDS011;41633;39.720;2.910;2022-07-29T14:02:07;10.13;;;2.80;;
55728;SDS011;41633;39.720;2.910;2022-07-29T14:04:33;10.77;;;2.45;;
55728;SDS011;41633;39.720;2.910;2022-07-29T14:07:00;10.02;;;2.40;;
55728;SDS011;41633;39.720;2.910;2022-07-29T14:09:26;9.68;;;2.65;;
55728;SDS011;41633;39.720;2.910;2022-07-29T14:11:53;12.40;;;2.53;;
55728;SDS011;41633;39.720;2.910;2022-07-29T14:14:19;14.30;;;2.90;;
55728;SDS011;41633;39.720;2.910;2022-07-29T14:16:46;10.77;;;2.70;;
55728;SDS011;41633;39.720;2.910;2022-07-29T14:19:12;13.77;;;2.55;;
55728;SDS011;41633;39.720;2.910;2022-07-29T14:21:38;10.05;;;2.55;;
55728;SDS011;41633;39.720;2.910;2022-07-29T14:24:04;10.15;;;2.20;;
55728;SDS011;41633;39.720;2.910;2022-07-29T14:26:31;10.77;;;2.60;;
55728;SDS011;41633;39.720;2.910;2022-07-29T14:28:57;10.35;;;2.28;;
55728;SDS011;41633;39.720;2.910;2022-07-29T14:31:23;13.00;;;2.50;;
55728;SDS011;41633;39.720;2.910;2022-07-29T14:33:49;13.82;;;2.95;;
55728;SDS011;41633;39.720;2.910;2022-07-29T14:36:15;12.70;;;2.67;;
55728;SDS011;41633;39.720;2.910;2022-07-29T14:38:41;10.48;;;2.53;;
55728;SDS011;41633;39.720;2.910;2022-07-29T14:41:07;9.65;;;2.55;;
55728;SDS011;41633;39.720;2.910;2022-07-29T14:43:34;11.95;;;2.45;;
55728;SDS011;41633;39.720;2.910;2022-07-29T14:46:01;9.02;;;2.60;;
55728;SDS011;41633;39.720;2.910;2022-07-29T14:48:27;8.65;;;2.30;;
55728;SDS011;41633;39.720;2.910;2022-07-29T14:50:53;11.23;;;2.78;;
55728;SDS011;41633;39.720;2.910;2022-07-29T14:53:21;9.65;;;2.65;;
55728;SDS011;41633;39.720;2.910;2022-07-29T14:55:47;10.52;;;2.83;;
55728;SDS011;41633;39.720;2.910;2022-07-29T14:58:13;12.20;;;2.90;;
55728;SDS011;41633;39.720;2.910;2022-07-29T15:00:39;13.02;;;2.80;;
55728;SDS011;41633;39.720;2.910;2022-07-29T15:03:05;8.77;;;2.25;;
55728;SDS011;41633;39.720;2.910;2022-07-29T15:05:34;9.73;;;2.55;;
55728;SDS011;41633;39.720;2.910;2022-07-29T15:08:00;9.45;;;2.45;;
55728;SDS011;41633;39.720;2.910;2022-07-29T15:10:27;12.38;;;2.70;;
55728;SDS011;41633;39.720;2.910;2022-07-29T15:12:53;10.23;;;2.40;;
55728;SDS011;41633;39.720;2.910;2022-07-29T15:15:20;12.48;;;2.88;;
55728;SDS011;41633;39.720;2.910;2022-07-29T15:17:46;11.57;;;2.45;;
55728;SDS011;41633;39.720;2.910;2022-07-29T15:20:13;14.27;;;2.75;;
55728;SDS011;41633;39.720;2.910;2022-07-29T15:22:39;9.23;;;2.42;;
55728;SDS011;41633;39.720;2.910;2022-07-29T15:25:07;9.52;;;2.40;;
55728;SDS011;41633;39.720;2.910;2022-07-29T15:27:33;11.05;;;2.70;;
55728;SDS011;41633;39.720;2.910;2022-07-29T15:29:59;11.73;;;2.80;;
55728;SDS011;41633;39.720;2.910;2022-07-29T15:32:26;11.45;;;2.85;;
55728;SDS011;41633;39.720;2.910;2022-07-29T15:34:52;10.25;;;2.50;;
55728;SDS011;41633;39.720;2.910;2022-07-29T15:37:18;8.48;;;2.60;;